Flight Track Log - Related Links

Times and Time Zones

All times are in EDT time to prevent confusion due to time zone crossing. See the KCE2 flight status page for this flight to view local times or setup timezone preferences in your user account.

Time Position Orientation Groundspeed Altitude Reporting Facility
EDT Latitude Longitude Course Direction KTS MPH feet Rate Location/Type
Tue 03:16:52 PM 45.2260 -66.2110 297° West 320 368 13,100  Level FlightAware ADS-B
Tue 03:18:07 PM 45.2790 -66.3530 298° West 342 394 17,600 2,938 Climbing FlightAware ADS-B
Tue 03:19:17 PM 45.3350 -66.5020 298° West 386 444 20,200 2,317 Climbing FlightAware ADS-B
Tue 03:20:32 PM 45.3990 -66.6760 298° West 411 473 23,200 2,317 Climbing FlightAware ADS-B
Tue 03:21:42 PM 45.4620 -66.8470 298° West 425 489 25,800 2,317 Climbing FlightAware ADS-B
Tue 03:22:57 PM 45.5320 -67.0360 298° West 426 490 28,800 2,069 Climbing FlightAware ADS-B
Tue 03:24:07 PM 45.5960 -67.2130 297° West 438 504 30,800 1,371 Climbing FlightAware ADS-B
Tue 03:25:17 PM 45.6630 -67.3980 297° West 465 535 32,000 514 Climbing FlightAware ADS-B
Tue 03:26:27 PM 45.7350 -67.5990 297° West 500 575 32,000  Level FlightAware ADS-B
Tue 03:27:52 PM 45.8240 -67.8490 297° West 501 577 32,000  Level FlightAware ADS-B
Tue 03:28:37 PM 45.8710 -67.9820 297° West 501 577 32,000  Level FlightAware ADS-B
Tue 03:29:32 PM 45.9240 -68.1360 296° West 501 577 32,000  Level FlightAware ADS-B
Tue 03:30:12 PM 45.9580 -68.2380 296° West 501 577 32,000  Level FlightAware ADS-B
Tue 03:30:52 PM 45.9930 -68.3400 296° West 501 577 32,000  Level FlightAware ADS-B
Tue 03:31:32 PM 46.0510 -68.4990 298° West 490 564 32,000  Level FlightAware ADS-B
Tue 03:32:17 PM 46.0960 -68.6290 297° West 486 559 32,000 565 Level FlightAware ADS-B
Tue 03:32:57 PM 46.1360 -68.7450 296° West 482 555 32,800 1,074 Climbing FlightAware ADS-B
Tue 03:33:52 PM 46.1880 -68.8980 296° West 473 544 33,700 1,980 Climbing FlightAware ADS-B
Tue 03:34:37 PM 46.2310 -69.0240 296° West 449 517 36,100 2,047 Climbing FlightAware ADS-B
Tue 03:35:17 PM 46.2670 -69.1320 296° West 457 526 36,600 825 Climbing FlightAware ADS-B
Tue 03:35:57 PM 46.3040 -69.2410 296° West 458 527 37,200 1,000 Climbing FlightAware ADS-B
Tue 03:36:47 PM 46.3500 -69.3780 296° West 452 520 38,100 1,133 Climbing FlightAware ADS-B
Tue 03:37:27 PM 46.3860 -69.4870 296° West 447 514 38,900 1,050 Climbing FlightAware ADS-B
Tue 03:38:07 PM 46.4210 -69.5910 296° West 443 510 39,500 720 Climbing FlightAware ADS-B
Tue 03:38:42 PM 46.4520 -69.6860 295° West 445 512 39,800 675 Climbing FlightAware ADS-B
Tue 03:39:27 PM 46.4920 -69.8060 296° West 441 507 40,400 776 Climbing FlightAware ADS-B
Tue 03:40:07 PM 46.5270 -69.9130 295° West 440 506 40,900 560 Climbing FlightAware ADS-B
Tue 03:40:42 PM 46.5570 -70.0070 295° West 442 509 41,100 675 Climbing FlightAware ADS-B
Tue 03:41:27 PM 46.5960 -70.1240 296° West 432 497 41,800 635 Climbing FlightAware ADS-B
Tue 03:42:07 PM 46.6300 -70.2290 295° West 434 499 42,000 375 Climbing FlightAware ADS-B
Tue 03:42:47 PM 46.6630 -70.3340 295° West 431 496 42,300 353 Climbing FlightAware ADS-B
Tue 03:43:32 PM 46.7020 -70.4530 296° West 432 497 42,500 353 Climbing FlightAware ADS-B
Tue 03:44:12 PM 46.7350 -70.5560 295° West 431 496 42,800 353 Climbing FlightAware ADS-B
Tue 03:44:57 PM 46.7730 -70.6750 295° West 430 495 43,000 141 Climbing FlightAware ADS-B
Tue 03:45:37 PM 46.8050 -70.7780 294° West 435 501 43,000  Level FlightAware ADS-B
Tue 03:46:17 PM 46.8390 -70.8860 295° West 439 505 43,000  Level FlightAware ADS-B
Tue 03:47:07 PM 46.8800 -71.0140 295° West 443 510 43,000  Level FlightAware ADS-B
Tue 03:48:07 PM 46.9330 -71.1840 295° West 450 518 43,000  Level FlightAware ADS-B
Tue 03:48:52 PM 46.9720 -71.3100 294° West 452 520 43,000  Level FlightAware ADS-B
Tue 03:49:37 PM 47.0070 -71.4250 294° West 454 522 43,000  Level FlightAware ADS-B
Tue 03:50:17 PM 47.0450 -71.5460 295° West 456 525 43,000  Level FlightAware ADS-B
Tue 03:50:57 PM 47.0800 -71.6600 294° West 456 525 43,000  Level FlightAware ADS-B
Tue 03:51:37 PM 47.1130 -71.7710 294° West 455 524 43,000  Level FlightAware ADS-B
Tue 03:52:17 PM 47.1480 -71.8830 295° West 455 524 43,000  Level FlightAware ADS-B
Tue 03:52:57 PM 47.1820 -71.9970 294° West 456 525 43,000  Level FlightAware ADS-B
Tue 03:53:42 PM 47.2200 -72.1230 294° West 457 526 43,000  Level FlightAware ADS-B
Tue 03:54:22 PM 47.2530 -72.2340 294° West 458 527 43,000  Level FlightAware ADS-B
Tue 03:55:07 PM 47.2920 -72.3650 294° West 458 527 43,000  Level FlightAware ADS-B
Tue 03:55:47 PM 47.3260 -72.4780 294° West 456 525 43,000  Level FlightAware ADS-B
Tue 03:56:27 PM 47.3590 -72.5900 294° West 454 522 43,000  Level FlightAware ADS-B
Tue 03:57:07 PM 47.3920 -72.7020 294° West 453 521 43,000  Level FlightAware ADS-B
Tue 03:57:57 PM 47.4360 -72.8390 295° West 453 521 43,000  Level FlightAware ADS-B
Tue 03:58:37 PM 47.4750 -72.9480 298° West 453 521 43,000  Level FlightAware ADS-B
Tue 03:59:17 PM 47.5110 -73.0520 297° West 453 521 43,000  Level FlightAware ADS-B
Tue 03:59:57 PM 47.5520 -73.1670 298° West 451 519 43,000  Level FlightAware ADS-B
Tue 04:00:42 PM 47.5950 -73.2910 297° West 449 517 43,000  Level FlightAware ADS-B
Tue 04:01:22 PM 47.6330 -73.4000 297° West 448 516 43,000  Level FlightAware ADS-B
Tue 04:01:57 PM 47.6640 -73.4870 298° West 448 516 43,000  Level FlightAware ADS-B
Tue 04:02:47 PM 47.7130 -73.6290 297° West 447 514 43,000  Level FlightAware ADS-B
Tue 04:03:32 PM 47.7570 -73.7540 298° West 449 517 43,000  Level FlightAware ADS-B
Tue 04:04:12 PM 47.7920 -73.8570 297° West 449 517 43,000  Level FlightAware ADS-B
Tue 04:04:47 PM 47.8220 -73.9440 297° West 449 517 43,000  Level FlightAware ADS-B
Tue 04:05:37 PM 47.8620 -74.0610 297° West 449 517 43,000  Level FlightAware ADS-B
Tue 04:06:17 PM 47.8940 -74.1550 297° West 449 517 43,000  Level FlightAware ADS-B
Tue 04:06:57 PM 47.9260 -74.2490 297° West 449 517 43,000  Level FlightAware ADS-B
Tue 04:07:37 PM 47.9580 -74.3430 297° West 449 517 43,000  Level FlightAware ADS-B
Tue 04:08:17 PM 47.9900 -74.4370 297° West 449 517 43,000  Level FlightAware ADS-B
Tue 04:09:07 PM 48.0300 -74.5540 297° West 449 517 43,000  Level FlightAware ADS-B
Tue 04:09:47 PM 48.0620 -74.6480 297° West 449 517 43,000  Level FlightAware ADS-B
Tue 04:10:27 PM 48.0940 -74.7430 297° West 449 517 43,000  Level FlightAware ADS-B
Tue 04:11:07 PM 48.1260 -74.8370 297° West 449 517 43,000  Level FlightAware ADS-B
Tue 04:11:47 PM 48.1580 -74.9310 297° West 449 517 43,000  Level FlightAware ADS-B
Tue 04:12:37 PM 48.1980 -75.0490 297° West 449 517 43,000  Level FlightAware ADS-B
Tue 04:13:17 PM 48.2310 -75.1440 298° West 449 517 43,000  Level FlightAware ADS-B
Tue 04:13:57 PM 48.2630 -75.2380 297° West 449 517 43,000  Level FlightAware ADS-B
Tue 04:14:37 PM 48.3667 -75.5833 297° West 440 506 43,000  Level Montreal Center
Tue 04:15:37 PM 48.4167 -75.7333 297° West 440 506 43,000  Level Montreal Center
Tue 04:16:37 PM 48.4667 -75.8833 297° West 440 506 43,000  Level Montreal Center
Tue 04:17:37 PM 48.5167 -76.0667 292° West 440 506 43,000  Level Montreal Center
Tue 04:18:37 PM 48.5667 -76.2500 292° West 440 506 43,000  Level Montreal Center
Tue 04:19:37 PM 48.6167 -76.4167 294° West 440 506 43,000  Level Montreal Center
Tue 04:20:37 PM 48.6667 -76.5833 294° West 440 506 43,000  Level Montreal Center
Tue 04:21:37 PM 48.7333 -76.7500 301° West 430 495 43,000  Level Montreal Center
Tue 04:22:37 PM 48.7833 -76.9167 295° West 440 506 43,000  Level Montreal Center
Tue 04:23:37 PM 48.8333 -77.0667 297° West 430 495 43,000  Level Montreal Center
Tue 04:24:37 PM 48.8833 -77.2500 293° West 430 495 43,000  Level Montreal Center
Tue 04:25:37 PM 48.9167 -77.4000 289° West 430 495 43,000  Level Montreal Center
Tue 04:26:37 PM 48.9667 -77.5833 293° West 430 495 43,000  Level Montreal Center
Tue 04:27:37 PM 49.0167 -77.7333 297° West 440 506 43,000  Level Montreal Center
Tue 04:28:37 PM 49.0667 -77.9167 293° West 430 495 43,000  Level Montreal Center
Tue 04:29:37 PM 49.1167 -78.0667 297° West 410 472 43,000  Level Montreal Center
Tue 04:30:37 PM 49.1667 -78.2500 293° West 450 518 43,000  Level Montreal Center
Tue 04:31:37 PM 49.2167 -78.4167 295° West 430 495 43,000  Level Montreal Center
Tue 04:32:37 PM 49.2500 -78.5667 289° West 420 483 43,000  Level Montreal Center
Tue 04:33:37 PM 49.3000 -78.7500 293° West 420 483 43,000  Level Montreal Center
Tue 04:34:37 PM 49.3500 -78.9167 295° West 410 472 43,000  Level Montreal Center
Tue 04:35:37 PM 49.4000 -79.0667 297° West 430 495 43,000  Level Montreal Center
Tue 04:36:37 PM 49.4333 -79.2167 289° West 420 483 43,000  Level Montreal Center
Tue 04:37:37 PM 49.4833 -79.4167 291° West 420 483 43,000  Level Montreal Center
Tue 04:38:37 PM 49.5333 -79.5667 297° West 410 472 43,000  Level Montreal Center
Tue 04:39:37 PM 49.5833 -79.7333 295° West 410 472 43,000  Level Montreal Center
Tue 04:40:37 PM 49.6167 -79.9167 286° West 420 483 43,000  Level Montreal Center
Tue 04:41:37 PM 49.6667 -80.0667 297° West 420 483 43,000  Level Montreal Center
Tue 04:42:37 PM 49.7167 -80.2333 295° West 420 483 43,000  Level Montreal Center
Tue 04:43:37 PM 49.7333 -80.4167 278° West 420 483 43,000  Level Montreal Center
Tue 04:44:37 PM 49.7833 -80.5833 295° West 420 483 43,000  Level Montreal Center
Tue 04:45:37 PM 49.8167 -80.7667 286° West 420 483 43,000  Level Montreal Center
Tue 04:46:37 PM 49.8500 -80.9167 289° West 420 483 43,000  Level Montreal Center
Tue 04:47:37 PM 49.9000 -81.1167 291° West 420 483 43,000  Level Montreal Center
Tue 04:48:37 PM 49.9167 -81.2667 280° West 430 495 43,000  Level Montreal Center
Tue 04:49:37 PM 49.9667 -81.4667 291° West 420 483 43,000  Level Montreal Center
Tue 04:50:37 PM 50.0000 -81.6500 286° West 420 483 43,000  Level Montreal Center
Tue 04:51:37 PM 50.0333 -81.8167 287° West 420 483 43,000  Level Montreal Center
Tue 04:52:37 PM 50.0667 -81.9667 289° West 410 472 43,000  Level Montreal Center
Tue 04:53:13 PM 50.0667 -81.9833 270° West 420 483 43,000  Level Winnipeg Center
Tue 04:54:13 PM 50.1000 -82.1833 285° West 420 483 43,000  Level Winnipeg Center
Tue 04:55:13 PM 50.1333 -82.3333 289° West 420 483 43,000  Level Winnipeg Center
Tue 04:56:13 PM 50.1667 -82.5333 285° West 420 483 43,000  Level Winnipeg Center
Tue 04:56:29 PM 50.1667 -82.5500 270° West 420 483 43,000  Level Edmonton Center
Tue 04:57:29 PM 50.1833 -82.7333 278° West 420 483 43,000  Level Edmonton Center
Tue 04:58:13 PM 50.2500 -82.8833 305° West 420 483 43,000  Level Winnipeg Center
Tue 04:58:37 PM 50.2667 -83.0333 280° West 420 483 43,000  Level Montreal Center
Tue 04:59:37 PM 50.3000 -83.1833 289° West 420 483 43,000  Level Montreal Center
Tue 05:00:37 PM 50.3167 -83.3833 278° West 410 472 43,000  Level Montreal Center
Tue 05:01:37 PM 50.3667 -83.5500 295° West 410 472 43,000  Level Montreal Center
Tue 05:02:37 PM 50.3833 -83.7333 278° West 410 472 43,000  Level Montreal Center
Tue 05:03:37 PM 50.4167 -83.9000 287° West 410 472 43,000  Level Montreal Center
Tue 05:04:37 PM 50.4500 -84.0833 286° West 410 472 43,000  Level Montreal Center
Tue 05:05:37 PM 50.4833 -84.2500 288° West 410 472 43,000  Level Montreal Center
Tue 05:06:37 PM 50.5000 -84.4167 279° West 410 472 43,000  Level Montreal Center
Tue 05:07:29 PM 50.5000 -84.4667 270° West 410 472 43,000  Level Edmonton Center
Tue 05:08:29 PM 50.5333 -84.6333 288° West 410 472 43,000  Level Edmonton Center
Tue 05:09:29 PM 50.5667 -84.8167 286° West 420 483 43,000  Level Edmonton Center
Tue 05:10:13 PM 50.6000 -84.9500 292° West 420 483 43,000  Level Winnipeg Center
Tue 05:10:37 PM 50.6333 -85.1000 289° West 410 472 43,000  Level Montreal Center
Tue 05:11:37 PM 50.6500 -85.3000 278° West 410 472 43,000  Level Montreal Center
Tue 05:12:29 PM 50.6500 -85.3500 270° West 420 483 43,000  Level Edmonton Center
Tue 05:13:13 PM 50.7000 -85.5000 298° West 420 483 43,000  Level Winnipeg Center
Tue 05:13:29 PM 50.6833 -85.5000 180° South 420 483 43,000  Level Edmonton Center
Tue 05:14:29 PM 50.7000 -85.7167 277° West 420 483 43,000  Level Edmonton Center
Tue 05:15:29 PM 50.7333 -85.8667 289° West 420 483 43,000  Level Edmonton Center
Tue 05:16:29 PM 50.7667 -86.0667 285° West 420 483 43,000  Level Edmonton Center
Tue 05:17:13 PM 50.8167 -86.2167 298° West 420 483 43,000  Level Winnipeg Center
Tue 05:17:29 PM 50.8000 -86.2167 180° South 420 483 43,000  Level Edmonton Center
Tue 05:18:13 PM 50.8333 -86.4000 286° West 420 483 43,000  Level Winnipeg Center
Tue 05:19:13 PM 50.8667 -86.5667 288° West 420 483 43,000  Level Winnipeg Center
Tue 05:20:13 PM 50.9000 -86.7500 286° West 420 483 43,000  Level Winnipeg Center
Tue 05:21:13 PM 50.9167 -86.9167 279° West 420 483 43,000  Level Winnipeg Center
Tue 05:22:13 PM 50.9500 -87.1167 285° West 420 483 43,000  Level Winnipeg Center
Tue 05:23:13 PM 50.9833 -87.2667 289° West 420 483 43,000  Level Winnipeg Center
Tue 05:23:29 PM 50.9667 -87.3000 232° Southwest 420 483 43,000  Level Edmonton Center
Tue 05:24:29 PM 50.9833 -87.4833 278° West 420 483 43,000  Level Edmonton Center
Tue 05:25:13 PM 51.0167 -87.6333 290° West 420 483 43,000  Level Winnipeg Center
Tue 05:26:13 PM 51.0333 -87.8167 278° West 420 483 43,000  Level Winnipeg Center
Tue 05:27:13 PM 51.0667 -88.0000 286° West 420 483 43,000  Level Winnipeg Center
Tue 05:28:13 PM 51.1000 -88.1833 286° West 420 483 43,000  Level Winnipeg Center
Tue 05:29:13 PM 51.1333 -88.3667 286° West 400 460 43,000  Level Winnipeg Center
Tue 05:30:13 PM 51.1500 -88.5500 278° West 410 472 43,000  Level Winnipeg Center
Tue 05:31:13 PM 51.1833 -88.7500 285° West 430 495 43,000  Level Winnipeg Center
Tue 05:32:13 PM 51.1833 -88.9167 270° West 420 483 43,000  Level Winnipeg Center
Tue 05:33:13 PM 51.2167 -89.1000 286° West 410 472 43,000  Level Winnipeg Center
Tue 05:34:13 PM 51.2500 -89.2833 286° West 410 472 43,000  Level Winnipeg Center
Tue 05:35:13 PM 51.2500 -89.4333 270° West 420 483 43,000  Level Winnipeg Center
Tue 05:36:13 PM 51.2833 -89.6500 284° West 410 472 43,000  Level Winnipeg Center
Tue 05:37:13 PM 51.3167 -89.8000 290° West 420 483 43,000  Level Winnipeg Center
Tue 05:38:13 PM 51.3333 -90.0167 277° West 420 483 43,000  Level Winnipeg Center
Tue 05:39:13 PM 51.3500 -90.2000 278° West 430 495 43,000  Level Winnipeg Center
Tue 05:40:13 PM 51.3833 -90.3833 286° West 430 495 43,000  Level Winnipeg Center
Tue 05:41:13 PM 51.4000 -90.5667 278° West 430 495 43,000  Level Winnipeg Center
Tue 05:42:13 PM 51.4167 -90.7667 278° West 430 495 43,000  Level Winnipeg Center
Tue 05:43:13 PM 51.4500 -90.9500 286° West 430 495 43,000  Level Winnipeg Center
Tue 05:44:13 PM 51.4500 -91.1333 270° West 430 495 43,000  Level Winnipeg Center
Tue 05:45:13 PM 51.4833 -91.3500 284° West 430 495 43,000  Level Winnipeg Center
Tue 05:46:13 PM 51.5000 -91.5000 280° West 430 495 43,000  Level Winnipeg Center
Tue 05:47:13 PM 51.5167 -91.7167 277° West 430 495 43,000  Level Winnipeg Center
Tue 05:48:13 PM 51.5333 -91.9000 278° West 420 483 43,000  Level Winnipeg Center
Tue 05:49:13 PM 51.5667 -92.0833 286° West 430 495 43,000  Level Winnipeg Center
Tue 05:50:13 PM 51.5667 -92.2833 270° West 430 495 43,000  Level Winnipeg Center
Tue 05:51:13 PM 51.6000 -92.4667 286° West 430 495 43,000  Level Winnipeg Center
Tue 05:52:13 PM 51.6167 -92.6500 278° West 430 495 43,000  Level Winnipeg Center
Tue 05:53:13 PM 51.6333 -92.8333 278° West 430 495 43,000  Level Winnipeg Center
Tue 05:54:13 PM 51.6500 -93.0500 277° West 430 495 43,000  Level Winnipeg Center
Tue 05:55:13 PM 51.6833 -93.2167 288° West 430 495 43,000  Level Winnipeg Center
Tue 05:56:13 PM 51.7000 -93.4333 277° West 430 495 43,000  Level Winnipeg Center
Tue 05:57:13 PM 51.7167 -93.6167 278° West 430 495 43,000  Level Winnipeg Center
Tue 05:58:13 PM 51.7500 -93.8000 286° West 430 495 43,000  Level Winnipeg Center
Tue 05:59:13 PM 51.7667 -93.9833 278° West 430 495 43,000  Level Winnipeg Center
Tue 06:00:13 PM 51.7833 -94.1833 278° West 430 495 43,000  Level Winnipeg Center
Tue 06:01:13 PM 51.8000 -94.3667 278° West 430 495 43,000  Level Winnipeg Center
Tue 06:02:13 PM 51.8333 -94.5500 286° West 430 495 43,000  Level Winnipeg Center
Tue 06:03:13 PM 51.8500 -94.7667 277° West 430 495 43,000  Level Winnipeg Center
Tue 06:04:13 PM 51.8500 -94.9333 270° West 430 495 43,000  Level Winnipeg Center
Tue 06:05:13 PM 51.8667 -95.1500 277° West 420 483 43,000  Level Winnipeg Center
Tue 06:06:13 PM 51.9000 -95.3167 288° West 420 483 43,000  Level Winnipeg Center
Tue 06:07:13 PM 51.9167 -95.5333 277° West 420 483 43,000  Level Winnipeg Center
Tue 06:08:13 PM 51.9333 -95.6833 280° West 420 483 43,000  Level Winnipeg Center
Tue 06:09:13 PM 51.9500 -95.9000 277° West 420 483 43,000  Level Winnipeg Center
Tue 06:14:57 PM 52.0550 -96.9840 277° West 429 494 43,000  Level FlightAware ADS-B
Tue 06:15:37 PM 52.0630 -97.0930 277° West 429 494 43,000  Level FlightAware ADS-B
Tue 06:16:17 PM 52.0710 -97.2020 277° West 429 494 43,000  Level FlightAware ADS-B
Tue 06:17:07 PM 52.0820 -97.3380 278° West 429 494 43,000  Level FlightAware ADS-B
Tue 06:17:47 PM 52.0900 -97.4470 277° West 429 494 43,000  Level FlightAware ADS-B
Tue 06:18:27 PM 52.0980 -97.5560 277° West 429 494 43,000  Level FlightAware ADS-B
Tue 06:19:07 PM 52.1060 -97.6650 277° West 429 494 43,000  Level FlightAware ADS-B
Tue 06:19:47 PM 52.1140 -97.7740 277° West 429 494 43,000  Level FlightAware ADS-B
Tue 06:20:27 PM 52.1230 -97.8830 278° West 429 494 43,000  Level FlightAware ADS-B
Tue 06:21:17 PM 52.1330 -98.0190 277° West 429 494 43,000  Level FlightAware ADS-B
Tue 06:21:57 PM 52.1570 -98.3340 277° West 426 490 43,000  Level FlightAware ADS-B
Tue 06:22:37 PM 52.1640 -98.4480 276° West 426 490 43,000  Level FlightAware ADS-B
Tue 06:23:17 PM 52.1710 -98.5570 276° West 426 490 43,000  Level FlightAware ADS-B
Tue 06:24:07 PM 52.1800 -98.6930 276° West 426 490 43,000  Level FlightAware ADS-B
Tue 06:24:47 PM 52.1870 -98.8010 276° West 426 490 43,000  Level FlightAware ADS-B
Tue 06:25:27 PM 52.1940 -98.9100 276° West 426 490 43,000  Level FlightAware ADS-B
Tue 06:26:07 PM 52.2010 -99.0190 276° West 426 490 43,000  Level FlightAware ADS-B
Tue 06:26:47 PM 52.2080 -99.1270 276° West 426 490 43,000  Level FlightAware ADS-B
Tue 06:27:37 PM 52.2170 -99.2630 276° West 426 490 43,000  Level FlightAware ADS-B
Tue 06:28:07 PM 52.2330 -99.5160 276° West 432 497 43,000  Level FlightAware ADS-B
Tue 06:28:52 PM 52.2390 -99.6430 274° West 432 497 43,000  Level FlightAware ADS-B
Tue 06:29:42 PM 52.2500 -99.8200 276° West 433 498 43,000  Level FlightAware ADS-B
Tue 06:30:17 PM 52.2560 -99.9280 275° West 433 498 43,000  Level FlightAware ADS-B
Tue 06:31:07 PM 52.2630 -100.0660 275° West 433 498 43,000  Level FlightAware ADS-B
Tue 06:31:47 PM 52.2690 -100.1770 275° West 433 498 43,000  Level FlightAware ADS-B
Tue 06:32:27 PM 52.2750 -100.2880 275° West 433 498 43,000  Level FlightAware ADS-B
Tue 06:33:07 PM 52.2810 -100.3990 275° West 433 498 43,000  Level FlightAware ADS-B
Tue 06:33:47 PM 52.2870 -100.5100 275° West 433 498 43,000  Level FlightAware ADS-B
Tue 06:34:27 PM 52.2930 -100.6210 275° West 433 498 43,000  Level FlightAware ADS-B
Tue 06:35:17 PM 52.3000 -100.7600 275° West 433 498 43,000  Level FlightAware ADS-B
Tue 06:35:57 PM 52.3060 -100.8710 275° West 433 498 43,000  Level FlightAware ADS-B
Tue 06:36:37 PM 52.3120 -100.9820 275° West 433 498 43,000  Level FlightAware ADS-B
Tue 06:37:17 PM 52.3180 -101.0930 275° West 433 498 43,000  Level FlightAware ADS-B
Tue 06:38:07 PM 52.3260 -101.2310 275° West 433 498 43,000  Level FlightAware ADS-B
Tue 06:38:47 PM 52.3320 -101.3420 275° West 433 498 43,000  Level FlightAware ADS-B
Tue 06:39:27 PM 52.3370 -101.4530 274° West 433 498 43,000  Level FlightAware ADS-B
Tue 06:40:13 PM 52.3000 -101.9167 274° West 440 506 43,000  Level Winnipeg Center
Tue 06:40:29 PM 52.3000 -101.9333 270° West 430 495 43,000  Level Edmonton Center
Tue 06:41:29 PM 52.2833 -102.1500 263° West 430 495 43,000  Level Edmonton Center
Tue 06:42:13 PM 52.2833 -102.3000 270° West 440 506 43,000  Level Winnipeg Center
Tue 06:43:13 PM 52.3000 -102.5000 278° West 440 506 43,000  Level Winnipeg Center
Tue 06:44:13 PM 52.2833 -102.7167 263° West 430 495 43,000  Level Winnipeg Center
Tue 06:45:13 PM 52.2833 -102.9167 270° West 440 506 43,000  Level Winnipeg Center
Tue 06:46:13 PM 52.2833 -103.1000 270° West 440 506 43,000  Level Winnipeg Center
Tue 06:47:13 PM 52.2833 -103.3000 270° West 430 495 43,000  Level Winnipeg Center
Tue 06:48:13 PM 52.2833 -103.4833 270° West 430 495 43,000  Level Winnipeg Center
Tue 06:49:13 PM 52.2833 -103.7000 270° West 430 495 43,000  Level Winnipeg Center
Tue 06:50:13 PM 52.2667 -103.8667 261° West 430 495 43,000  Level Winnipeg Center
Tue 06:50:29 PM 52.2667 -103.8833 270° West 420 483 43,000  Level Edmonton Center
Tue 06:51:29 PM 52.2500 -104.1167 263° West 420 483 43,000  Level Edmonton Center
Tue 06:52:13 PM 52.2667 -104.2833 279° West 430 495 43,000  Level Winnipeg Center
Tue 06:53:13 PM 52.2500 -104.4667 262° West 430 495 43,000  Level Winnipeg Center
Tue 06:54:13 PM 52.2333 -104.6500 262° West 430 495 43,000  Level Winnipeg Center
Tue 06:55:13 PM 52.2500 -104.8500 278° West 430 495 43,000  Level Winnipeg Center
Tue 06:56:13 PM 52.2333 -105.0667 263° West 430 495 43,000  Level Winnipeg Center
Tue 06:57:13 PM 52.2333 -105.2667 270° West 430 495 43,000  Level Winnipeg Center
Tue 06:58:13 PM 52.2167 -105.4500 262° West 430 495 43,000  Level Winnipeg Center
Tue 06:59:13 PM 52.2000 -105.6333 262° West 430 495 43,000  Level Winnipeg Center
Tue 07:00:13 PM 52.2000 -105.8333 270° West 430 495 43,000  Level Winnipeg Center
Tue 07:01:13 PM 52.2000 -106.0167 270° West 430 495 43,000  Level Winnipeg Center
Tue 07:02:13 PM 52.2000 -106.2167 270° West 430 495 43,000  Level Winnipeg Center
Tue 07:03:13 PM 52.1833 -106.4333 263° West 430 495 43,000  Level Winnipeg Center
Tue 07:04:13 PM 52.1667 -106.5833 260° West 430 495 43,000  Level Winnipeg Center
Tue 07:05:13 PM 52.1667 -106.8167 270° West 430 495 43,000  Level Winnipeg Center
Tue 07:06:13 PM 52.1333 -107.0000 254° West 430 495 43,000  Level Winnipeg Center
Tue 07:07:13 PM 52.1167 -107.1833 262° West 430 495 43,000  Level Winnipeg Center
Tue 07:08:13 PM 52.1000 -107.4000 263° West 430 495 43,000  Level Winnipeg Center
Tue 07:08:29 PM 52.0667 -107.4167 197° South 420 483 43,000  Level Edmonton Center
Tue 07:09:29 PM 52.0500 -107.5667 260° West 420 483 43,000  Level Edmonton Center
Tue 07:10:29 PM 52.0333 -107.8000 263° West 420 483 43,000  Level Edmonton Center
Tue 07:11:13 PM 52.0167 -107.9500 260° West 430 495 43,000  Level Winnipeg Center
Tue 07:12:13 PM 52.0000 -108.1500 262° West 430 495 43,000  Level Winnipeg Center
Tue 07:13:13 PM 51.9667 -108.3333 254° West 430 495 43,000  Level Winnipeg Center
Tue 07:14:13 PM 51.9333 -108.5167 254° West 430 495 43,000  Level Winnipeg Center
Tue 07:15:13 PM 51.9167 -108.7333 263° West 430 495 43,000  Level Winnipeg Center
Tue 07:16:13 PM 51.9000 -108.8833 260° West 430 495 43,000  Level Winnipeg Center
Tue 07:17:13 PM 51.8667 -109.0667 254° West 430 495 43,000  Level Winnipeg Center
Tue 07:17:29 PM 51.8500 -109.1000 231° Southwest 420 483 43,000  Level Edmonton Center
Tue 07:18:29 PM 51.8333 -109.2833 262° West 420 483 43,000  Level Edmonton Center
Tue 07:24:17 PM 51.7050 -110.3240 262° West 379 436 43,000  Level FlightAware ADS-B
Tue 07:24:52 PM 51.6930 -110.4060 257° West 376 433 43,000  Level FlightAware ADS-B
Tue 07:25:32 PM 51.6770 -110.5180 257° West 375 432 43,000  Level FlightAware ADS-B
Tue 07:26:47 PM 51.6480 -110.7110 256° West 374 430 43,000  Level FlightAware ADS-B
Tue 07:27:37 PM 51.6240 -110.8650 256° West 381 438 43,000  Level FlightAware ADS-B
Tue 07:28:42 PM 51.5970 -111.0400 256° West 384 442 43,000  Level FlightAware ADS-B
Tue 07:29:22 PM 51.5840 -111.1350 258° West 384 442 43,000 -1,350 Level FlightAware ADS-B
Tue 07:30:02 PM 51.5610 -111.2670 254° West 374 430 41,200 -1,976 Descending FlightAware ADS-B
Tue 07:30:47 PM 51.5420 -111.3860 256° West 368 423 40,200 -1,670 Descending FlightAware ADS-B
Tue 07:31:57 PM 51.5110 -111.5780 256° West 369 425 38,000 -1,878 Descending FlightAware ADS-B
Tue 07:32:42 PM 51.4910 -111.7010 255° West 390 449 36,600 -1,976 Descending FlightAware ADS-B
Tue 07:33:22 PM 51.4730 -111.8170 256° West 405 466 35,200 -2,040 Descending FlightAware ADS-B
Tue 07:34:22 PM 51.4440 -111.9900 255° West 401 461 33,200 -1,892 Descending FlightAware ADS-B
Tue 07:35:32 PM 51.4120 -112.1870 255° West 418 481 31,100 -2,100 Descending FlightAware ADS-B
Tue 07:37:22 PM 51.3550 -112.5240 255° West 437 503 26,900 -2,317 Descending FlightAware ADS-B
Tue 07:37:57 PM 51.3370 -112.6290 255° West 429 494 25,500 -2,329 Descending FlightAware ADS-B
Tue 07:38:47 PM 51.3100 -112.7830 254° West 417 480 23,600 -2,171 Descending FlightAware ADS-B
Tue 07:39:42 PM 51.2830 -112.9430 255° West 403 464 21,700 -2,147 Descending FlightAware ADS-B
Tue 07:40:22 PM 51.2630 -113.0590 255° West 397 457 20,200 -2,175 Descending FlightAware ADS-B
Tue 07:41:02 PM 51.2430 -113.1700 254° West 395 455 18,800 -2,073 Descending FlightAware ADS-B
Tue 07:42:12 PM 51.2090 -113.3640 254° West 372 428 16,400 -1,886 Descending FlightAware ADS-B
Tue 07:43:22 PM 51.1790 -113.5310 254° West 315 362 14,400 -1,714 Descending FlightAware ADS-B
Tue 07:43:57 PM 51.1640 -113.6100 253° West 296 341 13,400 -1,533 Descending FlightAware ADS-B
Tue 07:44:52 PM 51.1450 -113.7160 254° West 259 298 12,100 -1,425 Descending FlightAware ADS-B
Tue 07:45:17 PM 51.1520 -113.7610 284° West 248 285 11,500 -1,350 Descending FlightAware ADS-B
Tue 07:45:32 PM 51.1640 -113.7750 324° Northwest 258 297 11,200 -1,680 Descending FlightAware ADS-B
Tue 07:46:07 PM 51.2080 -113.8000 340° North 274 315 10,100 -1,938 Descending FlightAware ADS-B
Tue 07:46:37 PM 51.2470 -113.8220 341° North 263 303 9,100 -2,000 Descending FlightAware ADS-B
Tue 07:47:22 PM 51.2960 -113.8510 340° North 258 297 7,600 -1,600 Descending FlightAware ADS-B
Tue 07:48:22 PM 51.3590 -113.9020 333° Northwest 243 280 6,300 -1,286 Descending FlightAware ADS-B
Tue 07:48:32 PM 51.3630 -113.9180 292° West 236 272 6,100 -600 Descending FlightAware ADS-B
Tue 07:49:32 PM 51.3420 -113.9950 246° West 185 213 5,600 -424 Descending FlightAware ADS-B
Tue 07:49:57 PM 51.3220 -114.0110 207° Southwest 166 191 5,500 -86 Descending FlightAware ADS-B
Tue 07:50:42 PM 51.2870 -114.0230 192° South 180 207 5,500  Level FlightAware ADS-B
Tue 07:51:07 PM 51.2660 -114.0220 178° South 176 203 5,500  Level FlightAware ADS-B
Tue 07:51:37 PM 51.2420 -114.0210 179° South 165 190 5,500 -109 Level FlightAware ADS-B
Tue 07:52:02 PM 51.2210 -114.0210 180° South 175 201 5,400 -480 Descending FlightAware ADS-B
Tue 07:52:27 PM 51.2020 -114.0220 182° South 175 201 5,100 -840 Descending FlightAware ADS-B
Tue 07:52:52 PM 51.1820 -114.0210 178° South 166 191 4,700 -960 Descending FlightAware ADS-B
Tue 07:53:17 PM 51.1630 -114.0210 180° South 149 171 4,300 -831 Descending FlightAware ADS-B
Tue 07:53:57 PM 51.1350 -114.0210 180° South 132 152 3,800 -750 Descending FlightAware ADS-B

Login

Don't have an account? Register now (free) for customized features, flight alerts, and more!